createdAt,value
2019-03-26T00:02:00.437Z,1.70
2019-03-26T00:04:28.986Z,1.80
2019-03-26T00:06:57.596Z,1.80
2019-03-26T00:09:26.362Z,1.90
2019-03-26T00:11:54.913Z,1.90
2019-03-26T00:14:23.444Z,2.00
2019-03-26T00:16:52.026Z,2.00
2019-03-26T00:19:20.659Z,2.00
2019-03-26T00:21:49.295Z,1.90
2019-03-26T00:24:17.865Z,1.90
2019-03-26T00:26:46.347Z,1.90
2019-03-26T00:29:14.939Z,1.90
2019-03-26T00:31:43.599Z,1.90
2019-03-26T00:34:19.233Z,1.90
2019-03-26T00:36:42.347Z,2.00
2019-03-26T00:39:10.933Z,2.00
2019-03-26T00:41:39.469Z,2.00
2019-03-26T00:44:08.034Z,2.10
2019-03-26T00:46:36.607Z,2.10
2019-03-26T00:49:06.196Z,2.10
2019-03-26T00:51:34.749Z,2.20
2019-03-26T00:54:03.354Z,2.20
2019-03-26T00:56:31.900Z,2.20
2019-03-26T00:59:00.439Z,2.20
2019-03-26T01:01:28.961Z,2.10
2019-03-26T01:03:57.577Z,2.10
2019-03-26T01:06:26.129Z,2.10
2019-03-26T01:08:54.751Z,2.10
2019-03-26T01:11:23.308Z,2.10
2019-03-26T01:13:51.851Z,2.10
2019-03-26T01:16:20.427Z,2.10
2019-03-26T01:18:48.907Z,2.00
2019-03-26T01:21:17.449Z,2.00
2019-03-26T01:23:46.019Z,2.00
2019-03-26T01:26:14.526Z,1.90
2019-03-26T01:28:42.997Z,1.90
2019-03-26T01:31:11.532Z,1.90
2019-03-26T01:33:41.159Z,1.90
2019-03-26T01:36:10.840Z,1.90
2019-03-26T01:38:40.481Z,1.80
2019-03-26T01:41:10.186Z,1.70
2019-03-26T01:43:39.861Z,1.70
2019-03-26T01:46:09.594Z,1.60
2019-03-26T01:48:39.202Z,1.60
2019-03-26T01:51:09.269Z,1.60
2019-03-26T01:53:39.800Z,1.60
2019-03-26T01:56:09.474Z,1.60
2019-03-26T01:58:39.149Z,1.60
2019-03-26T02:01:08.781Z,1.70
2019-03-26T02:03:38.481Z,1.60
2019-03-26T02:06:08.179Z,1.60
2019-03-26T02:08:37.821Z,1.60
2019-03-26T02:11:07.501Z,1.70
2019-03-26T02:13:37.114Z,1.60
2019-03-26T02:16:06.865Z,1.60
2019-03-26T02:18:37.120Z,1.60
2019-03-26T02:21:06.860Z,1.60
2019-03-26T02:23:36.514Z,1.60
2019-03-26T02:26:06.197Z,1.60
2019-03-26T02:28:35.806Z,1.60
2019-03-26T02:31:05.447Z,1.60
2019-03-26T02:33:35.124Z,1.60
2019-03-26T02:36:04.782Z,1.60
2019-03-26T02:38:34.504Z,1.60
2019-03-26T02:41:04.214Z,1.60
2019-03-26T02:43:33.892Z,1.60
2019-03-26T02:46:04.142Z,1.60
2019-03-26T02:48:33.823Z,1.50
2019-03-26T02:51:03.527Z,1.60
2019-03-26T02:53:33.282Z,1.60
2019-03-26T02:56:02.992Z,1.60
2019-03-26T02:58:33.494Z,1.60
2019-03-26T03:01:03.213Z,1.60
2019-03-26T03:03:32.922Z,1.60
2019-03-26T03:06:02.604Z,1.70
2019-03-26T03:08:32.298Z,1.60
2019-03-26T03:11:01.984Z,1.60
2019-03-26T03:13:31.778Z,1.60
2019-03-26T03:16:01.482Z,1.60
2019-03-26T03:18:31.174Z,1.60
2019-03-26T03:21:00.781Z,1.70
2019-03-26T03:23:30.535Z,1.70
2019-03-26T03:26:00.218Z,1.60
2019-03-26T03:28:29.854Z,1.70
2019-03-26T03:30:59.613Z,1.70
2019-03-26T03:33:29.345Z,1.70
2019-03-26T03:35:59.005Z,1.70
2019-03-26T03:38:28.787Z,1.70
2019-03-26T03:40:58.471Z,1.70
2019-03-26T03:43:28.082Z,1.70
2019-03-26T03:45:57.791Z,1.70
2019-03-26T03:48:27.407Z,1.60
2019-03-26T03:50:57.093Z,1.70
2019-03-26T03:53:29.177Z,1.70
2019-03-26T03:55:58.861Z,1.70
2019-03-26T03:58:28.542Z,1.80
2019-03-26T04:00:58.257Z,1.80
2019-03-26T04:03:28.798Z,1.70
2019-03-26T04:06:08.691Z,1.70
2019-03-26T04:08:29.970Z,1.70
2019-03-26T04:10:58.502Z,1.70
2019-03-26T04:13:27.285Z,1.70
2019-03-26T04:15:55.889Z,1.70
2019-03-26T04:18:25.675Z,1.60
2019-03-26T04:20:55.345Z,1.60
2019-03-26T04:23:25.055Z,1.60
2019-03-26T04:25:54.773Z,1.50
2019-03-26T04:28:24.447Z,1.60
2019-03-26T04:30:54.168Z,1.50
2019-03-26T04:33:23.845Z,1.60
2019-03-26T04:35:53.552Z,1.60
2019-03-26T04:38:23.214Z,1.60
2019-03-26T04:40:53.390Z,1.60
2019-03-26T04:43:23.100Z,1.60
2019-03-26T04:45:52.808Z,1.60
2019-03-26T04:48:23.796Z,1.50
2019-03-26T04:50:53.469Z,1.60
2019-03-26T04:53:23.183Z,1.60
2019-03-26T04:55:52.864Z,1.60
2019-03-26T04:58:22.474Z,1.60
2019-03-26T05:00:52.135Z,1.60
2019-03-26T05:03:21.812Z,1.50
2019-03-26T05:05:52.249Z,1.50
2019-03-26T05:08:22.295Z,1.50
2019-03-26T05:10:52.014Z,1.60
2019-03-26T05:13:40.704Z,1.60
2019-03-26T05:16:10.389Z,1.60
2019-03-26T05:18:40.153Z,1.60
2019-03-26T05:21:09.869Z,1.70
2019-03-26T05:23:39.479Z,1.70
2019-03-26T05:26:09.181Z,1.70
2019-03-26T05:28:38.914Z,1.70
2019-03-26T05:31:08.626Z,1.80
2019-03-26T05:33:38.238Z,1.80
2019-03-26T05:36:08.000Z,2.00
2019-03-26T05:38:37.721Z,2.00
2019-03-26T05:41:10.431Z,2.20
2019-03-26T05:43:38.861Z,2.30
2019-03-26T05:46:08.511Z,2.30
2019-03-26T05:48:38.119Z,2.40
2019-03-26T05:51:07.866Z,2.20
2019-03-26T05:53:37.516Z,2.20
2019-03-26T05:56:07.296Z,2.30
2019-03-26T05:58:37.019Z,2.30
2019-03-26T06:01:09.267Z,2.40
2019-03-26T06:03:38.891Z,2.40
2019-03-26T06:06:08.661Z,2.50
2019-03-26T06:08:38.264Z,2.50
2019-03-26T06:11:08.731Z,3.10
2019-03-26T06:13:38.444Z,3.40
2019-03-26T06:16:12.016Z,3.20
2019-03-26T06:18:41.693Z,3.00
2019-03-26T06:21:11.337Z,2.80
2019-03-26T06:23:41.051Z,2.80
2019-03-26T06:26:10.752Z,2.80
2019-03-26T06:28:41.241Z,2.90
2019-03-26T06:31:10.942Z,3.00
2019-03-26T06:33:40.626Z,2.90
2019-03-26T06:36:10.346Z,2.80
2019-03-26T06:38:40.033Z,3.70
2019-03-26T06:41:09.731Z,3.30
2019-03-26T06:43:39.454Z,4.90
2019-03-26T06:46:09.136Z,6.80
2019-03-26T06:48:38.855Z,7.40
2019-03-26T06:51:07.676Z,7.80
2019-03-26T06:53:36.204Z,8.20
2019-03-26T06:56:05.668Z,5.80
2019-03-26T06:58:34.231Z,4.70
2019-03-26T07:01:03.951Z,4.40
2019-03-26T07:03:33.688Z,4.30
2019-03-26T07:06:03.527Z,4.30
2019-03-26T07:08:33.143Z,4.10
2019-03-26T07:11:02.751Z,4.20
2019-03-26T07:13:32.462Z,4.10
2019-03-26T07:16:02.953Z,3.80
2019-03-26T07:18:32.673Z,3.80
2019-03-26T07:21:02.389Z,3.80
2019-03-26T07:23:32.489Z,3.60
2019-03-26T07:26:02.131Z,4.70
2019-03-26T07:28:31.843Z,5.80
2019-03-26T07:31:01.521Z,6.20
2019-03-26T07:33:31.201Z,5.20
2019-03-26T07:36:00.911Z,5.70
2019-03-26T07:38:30.688Z,6.50
2019-03-26T07:41:01.584Z,5.80
2019-03-26T07:43:31.313Z,4.90
2019-03-26T07:46:00.995Z,4.50
2019-03-26T07:48:30.759Z,4.70
2019-03-26T07:51:01.639Z,5.20
2019-03-26T07:53:31.322Z,5.70
2019-03-26T07:56:01.052Z,6.70
2019-03-26T07:58:33.877Z,7.30
2019-03-26T08:01:04.494Z,7.60
2019-03-26T08:03:34.182Z,8.00
2019-03-26T08:06:03.886Z,8.00
2019-03-26T08:08:33.567Z,8.00
2019-03-26T08:11:03.184Z,8.30
2019-03-26T08:13:32.908Z,8.70
2019-03-26T08:16:01.541Z,9.00
2019-03-26T08:18:30.102Z,8.80
2019-03-26T08:20:59.499Z,8.30
2019-03-26T08:23:28.014Z,7.60
2019-03-26T08:25:57.635Z,6.00
2019-03-26T08:28:27.449Z,6.10
2019-03-26T08:30:57.119Z,5.50
2019-03-26T08:33:26.731Z,5.40
2019-03-26T08:35:56.387Z,6.60
2019-03-26T08:38:26.054Z,8.10
2019-03-26T08:40:55.700Z,8.90
2019-03-26T08:43:25.510Z,8.80
2019-03-26T08:45:55.230Z,8.00
2019-03-26T08:48:29.167Z,7.20
2019-03-26T08:50:59.309Z,7.00
2019-03-26T08:53:28.968Z,7.40
2019-03-26T08:56:00.049Z,7.70
2019-03-26T08:58:28.702Z,7.60
2019-03-26T09:01:00.205Z,7.80
2019-03-26T09:03:28.744Z,8.20
2019-03-26T09:06:00.238Z,9.30
2019-03-26T09:08:28.734Z,11.00
2019-03-26T09:10:59.983Z,10.20
2019-03-26T09:13:28.530Z,9.20
2019-03-26T09:15:57.090Z,7.60
2019-03-26T09:18:25.694Z,7.10
2019-03-26T09:20:54.267Z,6.90
2019-03-26T09:23:22.737Z,8.30
2019-03-26T09:25:51.209Z,7.60
2019-03-26T09:28:19.885Z,8.10
2019-03-26T09:30:48.452Z,8.10
2019-03-26T09:33:17.019Z,8.40
2019-03-26T09:35:45.593Z,9.80
2019-03-26T09:38:14.153Z,8.30
2019-03-26T09:40:43.339Z,7.20
2019-03-26T09:43:11.863Z,6.10
2019-03-26T09:45:40.471Z,5.60
2019-03-26T09:48:09.095Z,5.40
2019-03-26T09:50:38.242Z,6.90
2019-03-26T09:53:06.715Z,8.60
2019-03-26T09:55:35.340Z,8.90
2019-03-26T09:58:03.930Z,7.40
2019-03-26T10:00:32.599Z,6.00
2019-03-26T10:03:01.143Z,6.10
2019-03-26T10:05:29.637Z,7.10
2019-03-26T10:07:58.179Z,8.00
2019-03-26T10:10:26.730Z,9.60
2019-03-26T10:12:55.309Z,8.50
2019-03-26T10:15:23.862Z,8.30
2019-03-26T10:17:52.485Z,7.80
2019-03-26T10:20:22.084Z,8.30
2019-03-26T10:22:50.651Z,8.60
2019-03-26T10:25:19.171Z,8.70
2019-03-26T10:27:47.853Z,9.20
2019-03-26T10:30:20.355Z,8.60
2019-03-26T10:32:49.050Z,8.20
2019-03-26T10:35:17.648Z,7.90
2019-03-26T10:37:46.127Z,7.90
2019-03-26T10:40:17.819Z,7.70
2019-03-26T10:42:47.308Z,7.10
2019-03-26T10:45:15.942Z,7.70
2019-03-26T10:47:44.597Z,8.00
2019-03-26T10:50:13.169Z,8.30
2019-03-26T10:52:41.724Z,8.10
2019-03-26T10:55:10.456Z,7.90
2019-03-26T10:57:39.053Z,7.60
2019-03-26T11:00:07.868Z,7.70
2019-03-26T11:02:36.424Z,8.40
2019-03-26T11:05:07.310Z,8.60
2019-03-26T11:07:35.868Z,7.70
2019-03-26T11:10:06.453Z,7.40
2019-03-26T11:12:35.108Z,7.10
2019-03-26T11:15:06.078Z,7.60
2019-03-26T11:17:34.829Z,8.10
2019-03-26T11:20:03.890Z,7.80
2019-03-26T11:22:32.435Z,7.00
2019-03-26T11:25:00.999Z,7.30
2019-03-26T11:27:30.352Z,7.90
2019-03-26T11:29:58.958Z,9.00
2019-03-26T11:32:27.428Z,8.30
2019-03-26T11:34:57.013Z,7.60
2019-03-26T11:37:25.657Z,7.70
2019-03-26T11:39:54.298Z,7.70
2019-03-26T11:42:22.888Z,7.50
2019-03-26T11:44:51.434Z,7.40
2019-03-26T11:47:19.988Z,7.10
2019-03-26T11:49:48.488Z,7.20
2019-03-26T11:52:16.980Z,8.20
2019-03-26T11:54:45.587Z,8.10
2019-03-26T11:57:14.233Z,7.60
2019-03-26T11:59:42.763Z,7.70
2019-03-26T12:02:12.045Z,7.80
2019-03-26T12:04:40.715Z,7.90
2019-03-26T12:07:10.047Z,8.40
2019-03-26T12:09:46.176Z,8.10
2019-03-26T12:12:08.951Z,7.90
2019-03-26T12:14:37.492Z,6.80
2019-03-26T12:17:06.019Z,6.90
2019-03-26T12:19:34.605Z,7.20
2019-03-26T12:22:03.325Z,7.80
2019-03-26T12:24:31.990Z,7.30
2019-03-26T12:27:00.643Z,7.60
2019-03-26T12:29:29.395Z,7.60
2019-03-26T12:31:58.016Z,7.80
2019-03-26T12:34:26.636Z,7.50
2019-03-26T12:36:55.111Z,7.70
2019-03-26T12:39:24.520Z,7.20
2019-03-26T12:41:53.110Z,7.40
2019-03-26T12:44:21.588Z,7.30
2019-03-26T12:46:50.187Z,7.60
2019-03-26T12:49:18.923Z,7.70
2019-03-26T12:51:47.542Z,7.10
2019-03-26T12:54:16.079Z,7.90
2019-03-26T12:56:44.683Z,7.40
2019-03-26T12:59:13.245Z,7.40
2019-03-26T13:01:41.799Z,7.10
2019-03-26T13:04:13.363Z,7.10
2019-03-26T13:06:40.573Z,6.50
2019-03-26T13:09:09.747Z,6.00
2019-03-26T13:11:38.409Z,6.00
2019-03-26T13:14:06.955Z,5.70
2019-03-26T13:16:35.427Z,6.00
2019-03-26T13:19:04.062Z,6.10
2019-03-26T13:21:32.560Z,6.40
2019-03-26T13:24:01.179Z,7.40
2019-03-26T13:26:29.899Z,7.20
2019-03-26T13:28:58.430Z,6.30
2019-03-26T13:31:26.973Z,6.50
2019-03-26T13:33:55.627Z,6.30
2019-03-26T13:36:24.351Z,6.50
2019-03-26T13:38:52.911Z,6.30
2019-03-26T13:41:22.295Z,5.90
2019-03-26T13:43:51.009Z,6.00
2019-03-26T13:46:19.493Z,5.90
2019-03-26T13:48:48.228Z,5.80
2019-03-26T13:51:16.843Z,5.90
2019-03-26T13:53:45.382Z,5.90
2019-03-26T13:56:13.910Z,5.80
2019-03-26T13:58:42.462Z,6.10
2019-03-26T14:01:10.949Z,6.30
2019-03-26T14:03:39.543Z,6.30
2019-03-26T14:06:08.919Z,6.10
2019-03-26T14:08:37.427Z,6.00
2019-03-26T14:11:06.069Z,6.10
2019-03-26T14:13:34.616Z,5.80
2019-03-26T14:16:03.232Z,6.00
2019-03-26T14:18:31.818Z,5.90
2019-03-26T14:21:00.432Z,6.10
2019-03-26T14:23:28.920Z,5.80
2019-03-26T14:25:57.492Z,5.90
2019-03-26T14:28:26.272Z,6.20
2019-03-26T14:30:54.850Z,6.00
2019-03-26T14:33:23.419Z,5.90
2019-03-26T14:35:51.884Z,5.90
2019-03-26T14:38:20.492Z,6.10
2019-03-26T14:40:55.265Z,6.00
2019-03-26T14:43:19.367Z,5.80
2019-03-26T14:45:48.823Z,6.10
2019-03-26T14:48:17.533Z,6.40
2019-03-26T14:50:46.057Z,6.70
2019-03-26T14:53:14.545Z,6.30
2019-03-26T14:55:43.140Z,6.20
2019-03-26T14:58:12.083Z,6.80
2019-03-26T15:00:40.740Z,6.60
2019-03-26T15:03:09.290Z,6.50
2019-03-26T15:05:37.830Z,6.40
2019-03-26T15:08:07.195Z,6.90
2019-03-26T15:10:38.128Z,6.50
2019-03-26T15:13:06.662Z,6.70
2019-03-26T15:15:36.738Z,6.80
2019-03-26T15:18:05.530Z,6.30
2019-03-26T15:20:34.069Z,6.10
2019-03-26T15:23:02.623Z,6.00
2019-03-26T15:25:31.255Z,5.90
2019-03-26T15:27:59.798Z,6.20
2019-03-26T15:30:29.060Z,6.50
2019-03-26T15:32:57.655Z,6.40
2019-03-26T15:35:26.200Z,5.90
2019-03-26T15:37:54.742Z,5.90
2019-03-26T15:40:23.339Z,5.90
2019-03-26T15:42:51.927Z,5.60
2019-03-26T15:45:20.609Z,5.50
2019-03-26T15:47:49.990Z,5.30
2019-03-26T15:50:21.623Z,5.30
2019-03-26T15:52:51.077Z,5.30
2019-03-26T15:55:19.594Z,5.30
2019-03-26T15:57:48.150Z,5.20
2019-03-26T16:00:19.820Z,5.20
2019-03-26T16:02:48.375Z,5.10
2019-03-26T16:05:16.915Z,5.00
2019-03-26T16:07:45.488Z,5.00
2019-03-26T16:10:14.177Z,5.00
2019-03-26T16:12:42.715Z,4.90
2019-03-26T16:15:12.263Z,4.90
2019-03-26T16:17:40.862Z,4.90
2019-03-26T16:20:09.746Z,4.90
2019-03-26T16:22:38.303Z,4.90
2019-03-26T16:25:08.274Z,4.80
2019-03-26T16:27:36.962Z,4.90
2019-03-26T16:30:06.948Z,4.90
2019-03-26T16:32:36.447Z,4.90
2019-03-26T16:35:05.729Z,4.90
2019-03-26T16:37:35.065Z,4.80
2019-03-26T16:40:05.648Z,4.70
2019-03-26T16:42:34.194Z,4.70
2019-03-26T16:45:02.836Z,4.80
2019-03-26T16:47:31.453Z,4.80
2019-03-26T16:50:00.035Z,4.70
2019-03-26T16:52:28.590Z,4.70
2019-03-26T16:54:57.231Z,4.70
2019-03-26T16:57:25.775Z,4.70
2019-03-26T16:59:54.361Z,4.70
2019-03-26T17:02:22.963Z,4.70
2019-03-26T17:04:51.464Z,4.70
2019-03-26T17:07:20.030Z,4.60
2019-03-26T17:09:48.630Z,4.70
2019-03-26T17:12:17.182Z,4.60
2019-03-26T17:14:45.747Z,4.70
2019-03-26T17:17:14.328Z,4.60
2019-03-26T17:19:42.895Z,4.60
2019-03-26T17:22:11.441Z,4.50
2019-03-26T17:24:40.019Z,4.60
2019-03-26T17:27:08.608Z,4.60
2019-03-26T17:29:37.142Z,4.50
2019-03-26T17:32:05.900Z,4.50
2019-03-26T17:34:34.472Z,4.50
2019-03-26T17:37:03.021Z,4.40
2019-03-26T17:39:31.793Z,4.40
2019-03-26T17:42:00.342Z,4.30
2019-03-26T17:44:29.755Z,4.40
2019-03-26T17:46:58.379Z,4.30
2019-03-26T17:49:26.927Z,4.30
2019-03-26T17:51:56.374Z,4.30
2019-03-26T17:54:25.054Z,4.30
2019-03-26T17:56:53.617Z,4.30
2019-03-26T17:59:22.167Z,4.30
2019-03-26T18:01:50.750Z,4.40
2019-03-26T18:04:20.144Z,4.40
2019-03-26T18:06:48.744Z,4.30
2019-03-26T18:09:17.321Z,4.30
2019-03-26T18:11:45.865Z,4.30
2019-03-26T18:14:14.410Z,4.30
2019-03-26T18:16:43.031Z,4.30
2019-03-26T18:19:12.401Z,4.40
2019-03-26T18:21:50.808Z,4.30
2019-03-26T18:24:11.178Z,4.30
2019-03-26T18:26:39.802Z,4.20
2019-03-26T18:29:08.344Z,4.30
2019-03-26T18:31:36.952Z,4.30
2019-03-26T18:34:05.493Z,4.30
2019-03-26T18:36:34.004Z,4.30
2019-03-26T18:39:06.022Z,4.20
2019-03-26T18:41:41.488Z,4.20
2019-03-26T18:44:10.522Z,4.20
2019-03-26T18:46:39.385Z,4.20
2019-03-26T18:49:07.994Z,4.20
2019-03-26T18:51:36.565Z,4.10
2019-03-26T18:54:05.315Z,4.10
2019-03-26T18:56:34.720Z,4.10
2019-03-26T18:59:03.454Z,4.20
2019-03-26T19:01:32.206Z,4.10
2019-03-26T19:04:00.752Z,4.10
2019-03-26T19:06:29.432Z,4.10
2019-03-26T19:08:58.080Z,4.10
2019-03-26T19:11:26.648Z,4.00
2019-03-26T19:13:55.222Z,4.00
2019-03-26T19:16:23.790Z,4.00
2019-03-26T19:18:52.386Z,4.00
2019-03-26T19:21:20.939Z,3.90
2019-03-26T19:24:03.082Z,4.00
2019-03-26T19:26:20.057Z,4.00
2019-03-26T19:28:48.800Z,4.00
2019-03-26T19:31:17.476Z,4.00
2019-03-26T19:33:46.126Z,4.00
2019-03-26T19:36:14.787Z,4.00
2019-03-26T19:38:43.395Z,3.90
2019-03-26T19:41:12.182Z,3.90
2019-03-26T19:43:40.820Z,3.90
2019-03-26T19:46:09.450Z,3.90
2019-03-26T19:48:38.103Z,3.90
2019-03-26T19:51:06.654Z,3.90
2019-03-26T19:53:36.797Z,3.90
2019-03-26T19:56:05.502Z,3.90
2019-03-26T19:58:34.161Z,4.00
2019-03-26T20:01:03.711Z,3.90
2019-03-26T20:03:32.497Z,3.90
2019-03-26T20:06:12.689Z,3.90
2019-03-26T20:08:31.360Z,3.90
2019-03-26T20:11:00.150Z,3.90
2019-03-26T20:13:28.805Z,4.00
2019-03-26T20:15:57.470Z,3.90
2019-03-26T20:18:26.141Z,3.90
2019-03-26T20:20:55.999Z,3.80
2019-03-26T20:23:24.567Z,3.90
2019-03-26T20:25:53.137Z,3.90
2019-03-26T20:28:26.592Z,3.90
2019-03-26T20:30:54.334Z,3.90
2019-03-26T20:33:22.879Z,3.80
2019-03-26T20:35:51.616Z,3.90
2019-03-26T20:38:20.219Z,3.90
2019-03-26T20:40:48.774Z,3.90
2019-03-26T20:43:17.412Z,3.80
2019-03-26T20:45:45.987Z,3.80
2019-03-26T20:48:14.536Z,3.80
2019-03-26T20:50:44.113Z,3.90
2019-03-26T20:53:12.691Z,3.90
2019-03-26T20:55:53.709Z,3.80
2019-03-26T20:58:11.985Z,3.80
2019-03-26T21:00:41.879Z,3.90
2019-03-26T21:03:10.594Z,3.90
2019-03-26T21:05:39.307Z,3.80
2019-03-26T21:08:07.908Z,3.80
2019-03-26T21:10:36.482Z,3.80
2019-03-26T21:13:05.510Z,3.80
2019-03-26T21:15:34.090Z,3.80
2019-03-26T21:18:02.699Z,3.70
2019-03-26T21:20:31.193Z,3.60
2019-03-26T21:22:59.769Z,3.50
2019-03-26T21:25:28.255Z,3.50
2019-03-26T21:27:56.806Z,3.30
2019-03-26T21:30:25.412Z,3.30
2019-03-26T21:32:53.949Z,3.20
2019-03-26T21:35:22.630Z,3.10
2019-03-26T21:37:51.171Z,3.00
2019-03-26T21:40:19.850Z,2.80
2019-03-26T21:42:48.325Z,2.60
2019-03-26T21:45:18.849Z,2.50
2019-03-26T21:47:47.328Z,2.40
2019-03-26T21:50:15.947Z,2.40
2019-03-26T21:52:45.082Z,2.30
2019-03-26T21:55:33.057Z,2.20
2019-03-26T21:58:01.524Z,2.20
2019-03-26T22:00:30.055Z,2.10
2019-03-26T22:02:58.596Z,2.20
2019-03-26T22:05:27.142Z,2.10
2019-03-26T22:07:55.651Z,2.00
2019-03-26T22:10:24.133Z,1.90
2019-03-26T22:12:52.678Z,1.90
2019-03-26T22:15:21.408Z,1.90
2019-03-26T22:17:51.502Z,1.80
2019-03-26T22:20:20.073Z,1.90
2019-03-26T22:22:49.877Z,1.90
2019-03-26T22:25:18.444Z,1.80
2019-03-26T22:27:46.988Z,1.80
2019-03-26T22:30:16.114Z,1.90
2019-03-26T22:32:44.652Z,1.80
2019-03-26T22:35:13.213Z,1.80
2019-03-26T22:37:41.788Z,1.80
2019-03-26T22:40:10.812Z,2.00
2019-03-26T22:42:58.629Z,1.90
2019-03-26T22:45:27.222Z,2.00
2019-03-26T22:47:55.768Z,2.00
2019-03-26T22:50:24.397Z,2.10
2019-03-26T22:52:53.050Z,2.00
2019-03-26T22:55:21.607Z,2.10
2019-03-26T22:57:50.148Z,2.10
2019-03-26T23:00:20.593Z,2.20
2019-03-26T23:02:49.205Z,2.20
2019-03-26T23:05:17.844Z,2.20
2019-03-26T23:07:46.495Z,2.20
2019-03-26T23:10:15.886Z,2.20
2019-03-26T23:12:44.532Z,2.20
2019-03-26T23:15:18.912Z,2.20
2019-03-26T23:17:47.545Z,2.20
2019-03-26T23:20:16.163Z,2.30
2019-03-26T23:22:44.806Z,2.30
2019-03-26T23:25:14.287Z,2.20
2019-03-26T23:27:42.975Z,2.30
2019-03-26T23:30:13.240Z,2.30
2019-03-26T23:32:41.826Z,2.30
2019-03-26T23:35:10.807Z,2.40
2019-03-26T23:37:39.402Z,2.40
2019-03-26T23:40:08.591Z,2.40
2019-03-26T23:42:37.223Z,2.40
2019-03-26T23:45:09.364Z,2.40
2019-03-26T23:47:37.845Z,2.40
2019-03-26T23:50:08.514Z,2.40
2019-03-26T23:52:37.103Z,2.50
2019-03-26T23:55:09.281Z,2.40
2019-03-26T23:57:38.047Z,2.40
